VMMC Airport Information

Runway Information
Runway 16 Length 10544 ft width 148 ft
Elevation 20 ft Threshold 1195 ft Heading 160
Runway 34 Length 10544 ft Width 148 ft
Elevation 20 ft Threshold 1215 ft Heading 340
Airport Frequencies
Type APP Name HONG KONG Frequency 126.3 MHZ
Type ATIS Name ATIS Frequency 126.4 MHZ
Type GND Name GND Frequency 121.725 MHZ
Type TWR Name TWR Frequency 118 MHZ
Airport Navaids
Type VOR-DME Name Macau Frequency 116400 KHZ
Type VOR Name Jiuzhou Frequency 117200 KHZ
Airport Weather Information & NOTAM
ADDS - METARS form results

(1050 UTC 26 January 2022)
Data provider http://aviationweather.gov/metar/data/
 
METAR text: VMMC 261030Z 11005KT 9999 FEW023 SCT035 19/17 Q1015 NOSIG
Conditions at: VMMC (MACAO/MACAU , CN) observed 1030 UTC 26 January 2022
Temperature: 19.0°C (66°F)
Dewpoint: 17.0°C (63°F) [RH = 88%]
Pressure (altimeter): 29.97 inches Hg (1015.0 mb)
Winds: from the ESE (110 degrees) at 6 MPH (5 knots; 2.6 m/s)
Visibility: 6 or more miles (10+ km)
Ceiling: at least 12,000 feet AGL
Clouds: few clouds at 2300 feet AGL
scattered clouds at 3500 feet AGL
Weather: no significant weather observed at this time

METAR text: VMMC 261000Z 13003KT 100V170 9999 FEW020 SCT035 20/17 Q1015 NOSIG
Conditions at: VMMC (MACAO/MACAU , CN) observed 1000 UTC 26 January 2022
Temperature: 20.0°C (68°F)
Dewpoint: 17.0°C (63°F) [RH = 83%]
Pressure (altimeter): 29.97 inches Hg (1015.0 mb)
Winds: from the SE (130 degrees) at 3 MPH (3 knots; 1.5 m/s)
Visibility: 6 or more miles (10+ km)
Ceiling: at least 12,000 feet AGL
Clouds: few clouds at 2000 feet AGL
scattered clouds at 3500 feet AGL
Weather: no significant weather observed at this time

Forecast for: VMMC (MACAO/MACAU , CN)
Text: TAF VMMC 260500Z 2606/2712 09008KT 8000 FEW015 SCT035
Forecast period: 0600 UTC 26 January 2022 to 1200 UTC 27 January 2022
Forecast type: FROM: standard forecast or significant change
Winds: from the E (90 degrees) at 9 MPH (8 knots; 4.1 m/s)
Visibility: 5 miles (8 km)
Ceiling: at least 12,000 feet AGL
Clouds: few clouds at 1500 feet AGL
scattered clouds at 3500 feet AGL
Weather: no significant weather forecast for this period
Text: TEMPO 2609/2616 4000 -RA BR
Forecast period: 0900 to 1600 UTC 26 January 2022
Forecast type: TEMPORARY: The following changes expected for less than half the time period
Visibility: 2.49 miles (4.01 km)
Ceiling: unknown
Clouds: missing
Weather: -RA BR  (light rain, mist)
Text: TEMPO 2620/2702 4000 RA
Forecast period: 2000 UTC 26 January 2022 to 0200 UTC 27 January 2022
Forecast type: TEMPORARY: The following changes expected for less than half the time period
Visibility: 2.49 miles (4.01 km)
Ceiling: unknown
Clouds: missing
Weather: RA  (moderate rain)